.
WxDataArchive / Data Records for 2009-08-04
2009-08-03 August 2009 2009-08-05

Data Records for Tuesday, 04 August 2009

Time	Temp	Chill	HIndex	Humid	Dewpt	 Wind 	HiWind	WindDir	Rain 	Barom 
-----	----	-----	------	-----	-----	------	------	-------	-----	----- 
00:00	72.0	72.0	72.0	75	63.6	0	5	248	0.00	29.899 
00:05	71.8	71.8	71.8	76	63.8	0	1	225	0.00	29.899 
00:10	71.6	71.6	71.6	76	63.6	0	1	225	0.00	29.899 
00:15	71.5	71.5	71.5	77	63.9	0	2	225	0.00	29.894 
00:20	71.3	71.3	71.3	77	63.7	0	1	225	0.00	29.894 
00:25	71.1	71.1	71.1	78	63.9	0	1	225	0.00	29.894 
00:30	71.1	71.1	71.1	78	63.9	0	1	225	0.00	29.890 
00:35	70.9	70.9	70.9	79	64.1	0	1	225	0.00	29.890 
00:40	70.8	70.8	70.8	79	64.0	0	1	225	0.00	29.890 
00:45	70.6	70.6	70.6	79	63.8	0	1	225	0.00	29.888 
00:50	70.4	70.4	70.4	80	63.9	0	1	225	0.00	29.888 
00:55	70.3	70.3	70.3	80	63.8	0	1	225	0.00	29.888 
01:00	70.3	70.3	70.3	81	64.2	0	2	225	0.00	29.886 
01:05	70.1	70.1	70.1	81	64.0	0	2	225	0.00	29.886 
01:10	69.9	69.9	69.9	81	63.8	0	1	225	0.00	29.886 
01:15	69.9	69.9	69.9	81	63.8	0	2	225	0.00	29.884 
01:20	69.8	69.8	69.8	81	63.7	0	4	0	0.00	29.884 
01:25	69.8	69.8	69.8	81	63.7	0	1	315	0.00	29.884 
01:30	69.8	69.8	69.8	81	63.7	0	2	270	0.00	29.885 
01:35	69.6	69.6	69.6	81	63.5	0	1	270	0.00	29.885 
01:40	69.4	69.4	69.4	81	63.3	0	1	270	0.00	29.885 
01:45	69.4	69.4	69.4	82	63.7	0	1	270	0.00	29.884 
01:50	69.3	69.3	69.3	82	63.6	0	2	270	0.00	29.884 
01:55	69.1	69.1	69.1	82	63.4	0	1	270	0.00	29.884 
02:00	69.1	69.1	69.1	82	63.4	0	2	270	0.00	29.883 
02:05	68.9	68.9	68.9	82	63.2	0	2	270	0.00	29.883 
02:10	68.9	68.9	68.9	82	63.2	0	1	270	0.00	29.883 
02:15	68.8	68.8	68.8	83	63.4	0	1	270	0.00	29.873 
02:20	68.8	68.8	68.8	83	63.4	0	2	248	0.00	29.873 
02:25	68.8	68.8	68.8	83	63.4	0	2	248	0.00	29.873 
02:30	68.6	68.6	68.6	83	63.2	0	1	248	0.00	29.868 
02:35	68.6	68.6	68.6	83	63.2	0	2	248	0.00	29.868 
02:40	68.6	68.6	68.6	83	63.2	0	1	248	0.00	29.868 
02:45	68.4	68.4	68.4	83	63.0	0	1	248	0.00	29.868 
02:50	68.6	68.6	68.6	83	63.2	0	2	248	0.00	29.868 
02:55	68.6	68.6	68.6	83	63.2	0	2	248	0.00	29.868 
03:00	68.8	68.8	68.8	83	63.4	0	1	248	0.00	29.862 
03:05	68.8	68.8	68.8	82	63.1	0	2	270	0.00	29.862 
03:10	68.8	68.8	68.8	82	63.1	0	1	270	0.00	29.862 
03:15	68.8	68.8	68.8	83	63.4	0	1	270	0.00	29.854 
03:20	68.8	68.8	68.8	83	63.4	0	1	270	0.00	29.854 
03:25	68.6	68.6	68.6	83	63.2	0	0	---	0.00	29.854 
03:30	68.6	68.6	68.6	83	63.2	0	0	---	0.00	29.853 
03:35	68.4	68.4	68.4	83	63.0	0	0	---	0.00	29.853 
03:40	68.3	68.3	68.3	84	63.3	0	0	---	0.00	29.853 
03:45	68.3	68.3	68.3	84	63.3	0	0	---	0.00	29.856 
03:50	68.3	68.3	68.3	84	63.3	0	0	---	0.00	29.856 
03:55	68.3	68.3	68.3	84	63.3	0	0	---	0.00	29.856 
04:00	68.3	68.3	68.3	84	63.3	0	0	---	0.00	29.847 
04:05	68.1	68.1	68.1	84	63.1	0	0	---	0.00	29.847 
04:10	68.1	68.1	68.1	84	63.1	0	0	---	0.00	29.847 
04:15	68.1	68.1	68.1	84	63.1	0	0	---	0.00	29.848 
04:20	67.9	67.9	67.9	85	63.2	0	0	---	0.00	29.848 
04:25	67.8	67.8	67.8	85	63.1	0	0	---	0.00	29.848 
04:30	67.6	67.6	67.6	85	62.9	0	0	---	0.00	29.858 
04:35	67.4	67.4	67.4	86	63.1	0	0	---	0.00	29.858 
04:40	67.3	67.3	67.3	86	63.0	0	0	---	0.00	29.858 
04:45	67.3	67.3	67.3	87	63.3	0	0	---	0.00	29.853 
04:50	67.1	67.1	67.1	87	63.1	0	0	---	0.00	29.853 
04:55	66.9	66.9	66.9	87	62.9	0	0	---	0.00	29.853 
05:00	66.8	66.8	66.8	87	62.8	0	0	---	0.00	29.838 
05:05	66.6	66.6	66.6	88	62.9	0	0	---	0.00	29.838 
05:10	66.4	66.4	66.4	88	62.7	0	0	---	0.00	29.838 
05:15	66.3	66.3	66.3	88	62.6	0	0	---	0.00	29.831 
05:20	66.1	66.1	66.1	89	62.8	0	0	---	0.00	29.831 
05:25	66.0	66.0	66.0	89	62.7	0	0	---	0.00	29.831 
05:30	65.8	65.8	65.8	90	62.8	0	0	---	0.00	29.839 
05:35	65.8	65.8	65.8	90	62.8	0	0	---	0.00	29.839 
05:40	65.6	65.6	65.6	90	62.6	0	0	---	0.00	29.839 
05:45	65.6	65.6	65.6	90	62.6	0	0	---	0.00	29.839 
05:50	65.5	65.5	65.5	90	62.5	0	0	---	0.00	29.839 
05:55	65.5	65.5	65.5	91	62.8	0	0	---	0.00	29.839 
06:00	65.3	65.3	65.3	91	62.6	0	0	---	0.00	29.842 
06:05	65.3	65.3	65.3	91	62.6	0	0	---	0.00	29.842 
06:10	65.5	65.5	65.5	92	63.1	0	0	---	0.00	29.842 
06:15	65.6	65.6	65.6	92	63.2	0	0	---	0.00	29.839 
06:20	65.6	65.6	65.6	92	63.2	0	0	---	0.00	29.839 
06:25	65.6	65.6	65.6	92	63.2	0	0	---	0.00	29.839 
06:30	65.6	65.6	65.6	92	63.2	0	0	---	0.00	29.825 
06:35	65.8	65.8	65.8	92	63.4	0	0	---	0.00	29.825 
06:40	65.8	65.8	65.8	92	63.4	0	0	---	0.00	29.825 
06:45	65.8	65.8	65.8	92	63.4	0	0	---	0.00	29.823 
06:50	65.8	65.8	65.8	92	63.4	0	0	---	0.00	29.823 
06:55	65.6	65.6	65.6	92	63.2	0	0	---	0.00	29.823 
07:00	65.6	65.6	65.6	92	63.2	0	0	---	0.00	29.814 
07:05	65.6	65.6	65.6	92	63.2	0	0	---	0.00	29.814 
07:10	65.5	65.5	65.5	92	63.1	0	0	---	0.00	29.814 
07:15	65.5	65.5	65.5	92	63.1	0	0	---	0.00	29.823 
07:20	65.5	65.5	65.5	92	63.1	0	0	---	0.00	29.823 
07:25	65.5	65.5	65.5	93	63.4	0	0	---	0.00	29.823 
07:30	65.5	65.5	65.5	93	63.4	0	0	---	0.00	29.835 
07:35	65.6	65.6	65.6	93	63.5	0	0	---	0.00	29.835 
07:40	65.8	65.8	65.8	93	63.7	0	0	---	0.00	29.835 
07:45	66.0	66.0	66.0	93	63.9	0	1	270	0.00	29.846 
07:50	66.3	66.3	66.3	93	64.2	0	1	270	0.00	29.846 
07:55	66.6	66.6	66.6	93	64.5	0	0	---	0.00	29.846 
08:00	66.9	66.9	66.9	93	64.8	0	1	270	0.00	29.857 
08:05	67.3	67.3	67.3	92	64.9	0	1	270	0.00	29.857 
08:10	67.8	67.8	67.8	92	65.4	0	1	270	0.00	29.857 
08:15	68.1	68.1	68.1	92	65.7	0	1	270	0.00	29.868 
08:20	68.4	68.4	68.4	92	66.0	0	1	270	0.00	29.868 
08:25	68.6	68.6	68.6	91	65.9	0	2	270	0.00	29.868 
08:30	68.9	68.9	68.9	91	66.2	0	1	270	0.00	29.872 
08:35	69.3	69.3	69.3	91	66.6	0	1	270	0.00	29.872 
08:40	69.4	69.4	69.4	91	66.7	0	1	270	0.00	29.872 
08:45	69.8	69.8	69.8	90	66.7	0	1	270	0.00	29.869 
08:50	69.9	69.9	69.9	90	66.8	0	1	270	0.00	29.869 
08:55	70.3	70.3	70.3	90	67.2	0	1	270	0.00	29.869 
09:00	70.4	70.4	70.4	89	67.0	0	1	270	0.00	29.867 
09:05	70.8	70.8	70.8	88	67.1	0	3	270	0.00	29.867 
09:10	70.9	70.9	70.9	88	67.2	0	1	248	0.00	29.867 
09:15	71.1	71.1	71.1	88	67.4	0	2	248	0.00	29.874 
09:20	71.5	71.5	71.5	87	67.4	0	1	248	0.00	29.874 
09:25	71.6	71.6	71.6	87	67.5	0	2	248	0.00	29.874 
09:30	71.8	71.8	71.8	87	67.7	0	2	248	0.00	29.863 
09:35	72.0	72.0	72.0	86	67.6	0	2	248	0.00	29.863 
09:40	72.3	72.3	72.3	86	67.9	0	1	225	0.00	29.863 
09:45	72.5	72.5	72.5	86	68.1	1	3	90	0.00	29.862 
09:50	72.7	72.7	72.7	85	67.9	0	2	338	0.00	29.862 
09:55	73.2	73.2	73.2	85	68.4	0	1	338	0.00	29.862 
10:00	73.9	73.9	73.9	84	68.7	0	2	338	0.00	29.861 
10:05	74.2	74.2	74.2	83	68.7	0	2	270	0.00	29.861 
10:10	75.1	75.1	75.5	82	69.2	0	2	270	0.00	29.861 
10:15	75.8	75.8	76.8	79	68.8	0	1	270	0.00	29.854 
10:20	76.5	76.5	77.8	79	69.5	0	2	270	0.00	29.854 
10:25	77.0	77.0	78.6	78	69.6	0	1	270	0.00	29.854 
10:30	77.4	77.4	79.3	77	69.6	0	2	270	0.00	29.853 
10:35	77.6	77.6	79.6	76	69.4	0	1	270	0.00	29.853 
10:40	77.9	77.9	80.1	77	70.1	0	1	270	0.00	29.853 
10:45	78.3	78.3	80.7	76	70.1	0	1	270	0.00	29.845 
10:50	78.8	78.8	81.5	75	70.2	0	2	270	0.00	29.845 
10:55	79.0	79.0	81.7	74	70.0	0	1	270	0.00	29.845 
11:00	79.4	79.4	82.3	73	70.0	0	1	270	0.00	29.845 
11:05	79.8	79.8	82.9	72	69.9	0	1	270	0.00	29.845 
11:10	80.1	80.1	83.2	71	69.8	0	1	270	0.00	29.845 
11:15	79.9	79.9	82.8	70	69.2	0	1	270	0.00	29.852 
11:20	79.8	79.8	82.6	70	69.1	0	2	270	0.00	29.852 
11:25	79.9	79.9	82.9	71	69.6	0	1	270	0.00	29.852 
11:30	80.5	80.5	84.2	73	71.0	0	1	270	0.00	29.856 
11:35	81.1	81.1	85.0	71	70.8	0	1	248	0.00	29.856 
11:40	81.6	81.6	85.1	67	69.6	0	2	248	0.00	29.856 
11:45	81.6	81.6	84.9	66	69.1	0	3	248	0.00	29.860 
11:50	82.2	82.2	85.9	66	69.7	0	2	248	0.00	29.860 
11:55	82.4	82.4	86.1	65	69.4	1	3	248	0.00	29.860 
12:00	82.2	82.2	85.7	65	69.2	0	1	90	0.00	29.848 
12:05	81.6	81.6	84.9	66	69.1	0	3	90	0.00	29.848 
12:10	81.6	81.6	85.1	67	69.6	0	3	90	0.00	29.848 
12:15	82.2	82.2	86.1	67	70.1	0	2	90	0.00	29.856 
12:20	82.6	82.6	86.2	64	69.2	1	4	90	0.00	29.856 
12:25	82.4	82.4	85.8	64	69.0	2	4	112	0.00	29.856 
12:30	82.6	82.6	86.4	65	69.6	1	4	90	0.00	29.849 
12:35	82.6	82.6	86.4	65	69.6	1	3	270	0.00	29.849 
12:40	82.6	82.6	85.9	63	68.7	1	3	45	0.00	29.849 
12:45	82.8	82.8	86.7	65	69.8	1	3	135	0.00	29.849 
12:50	83.0	83.0	87.1	65	70.0	1	4	135	0.00	29.849 
12:55	82.8	82.8	86.3	63	68.9	1	3	292	0.00	29.849 
13:00	83.0	83.0	86.6	63	69.1	1	2	68	0.00	29.846 
13:05	82.8	82.8	86.1	62	68.4	1	5	68	0.00	29.846 
13:10	82.6	82.6	86.4	65	69.6	0	4	68	0.00	29.846 
13:15	82.8	82.8	86.7	65	69.8	0	2	22	0.00	29.849 
13:20	82.8	82.8	86.7	65	69.8	1	4	90	0.00	29.849 
13:25	82.4	82.4	86.1	65	69.4	0	2	22	0.00	29.849 
13:30	82.2	82.2	85.7	65	69.2	1	4	90	0.00	29.867 
13:35	82.2	82.2	86.4	68	70.6	1	6	90	0.00	29.867 
13:40	81.4	81.4	85.5	71	71.1	1	6	68	0.00	29.867 
13:45	80.1	80.1	83.2	71	69.8	2	5	270	0.00	29.888 
13:50	79.4	79.4	82.3	73	70.0	1	3	270	0.00	29.888 
13:55	78.8	78.8	81.4	74	69.8	1	7	90	0.00	29.888 
14:00	78.8	78.8	81.4	74	69.8	1	2	90	0.00	29.899 
14:05	78.8	78.8	81.5	75	70.2	0	3	90	0.00	29.899 
14:10	78.6	78.6	81.1	75	70.0	2	4	270	0.00	29.899 
14:15	78.5	78.5	81.0	76	70.3	2	6	270	0.00	29.899 
14:20	78.3	78.3	80.7	76	70.1	2	6	292	0.00	29.899 
14:25	78.1	78.1	80.4	76	69.9	2	7	270	0.00	29.899 
14:30	77.9	77.9	80.0	76	69.7	2	6	270	0.00	29.885 
14:35	77.7	77.7	79.7	76	69.5	2	7	270	0.00	29.885 
14:40	77.6	77.6	79.6	77	69.8	1	5	270	0.00	29.885 
14:45	77.7	77.7	79.7	78	70.3	1	3	292	0.00	29.876 
14:50	77.6	77.6	79.6	77	69.8	2	4	248	0.00	29.876 
14:55	77.6	77.6	79.6	78	70.2	2	6	248	0.00	29.876 
15:00	77.4	77.4	79.3	78	70.0	2	7	248	0.00	29.870 
15:05	77.2	77.2	78.9	79	70.2	2	6	292	0.00	29.870 
15:10	77.2	77.2	78.9	79	70.2	1	5	248	0.00	29.870 
15:15	77.2	77.2	78.9	80	70.5	1	3	248	0.00	29.874 
15:20	77.4	77.4	79.3	79	70.4	1	4	270	0.00	29.874 
15:25	77.6	77.6	79.6	79	70.6	0	3	248	0.00	29.874 
15:30	77.7	77.7	79.7	78	70.3	1	3	248	0.00	29.871 
15:35	77.9	77.9	80.1	77	70.1	1	4	248	0.00	29.871 
15:40	78.1	78.1	80.4	77	70.3	1	2	270	0.00	29.871 
15:45	78.1	78.1	80.4	76	69.9	1	3	270	0.00	29.861 
15:50	78.1	78.1	80.3	75	69.5	1	2	270	0.00	29.861 
15:55	77.9	77.9	80.0	75	69.3	1	2	270	0.00	29.861 
16:00	77.9	77.9	80.0	75	69.3	1	4	270	0.00	29.853 
16:05	77.9	77.9	80.0	75	69.3	1	4	292	0.00	29.853 
16:10	77.9	77.9	80.0	75	69.3	1	4	270	0.00	29.853 
16:15	78.1	78.1	80.3	75	69.5	0	2	270	0.00	29.848 
16:20	78.5	78.5	81.0	75	69.9	0	2	270	0.00	29.848 
16:25	78.8	78.8	81.4	74	69.8	0	2	270	0.00	29.848 
16:30	79.0	79.0	81.7	74	70.0	0	2	270	0.00	29.838 
16:35	79.2	79.2	82.1	74	70.2	1	3	292	0.00	29.838 
16:40	79.4	79.4	82.3	73	70.0	1	2	292	0.00	29.838 
16:45	79.8	79.8	83.0	73	70.4	0	2	292	0.00	29.825 
16:50	79.9	79.9	82.9	71	69.6	1	2	292	0.00	29.825 
16:55	80.3	80.3	83.4	70	69.6	0	1	292	0.00	29.825 
17:00	80.3	80.3	83.3	69	69.2	0	2	292	0.00	29.823 
17:05	80.7	80.7	84.0	69	69.6	0	1	292	0.00	29.823 
17:10	80.9	80.9	84.1	68	69.3	0	2	292	0.00	29.823 
17:15	80.9	80.9	83.8	66	68.4	0	1	292	0.00	29.824 
17:20	81.1	81.1	84.0	65	68.2	0	1	292	0.00	29.824 
17:25	81.1	81.1	84.0	65	68.2	0	2	292	0.00	29.824 
17:30	81.1	81.1	84.1	66	68.6	0	2	292	0.00	29.822 
17:35	80.9	80.9	83.8	66	68.4	0	1	292	0.00	29.822 
17:40	80.9	80.9	83.7	65	68.0	0	1	292	0.00	29.822 
17:45	80.9	80.9	83.8	66	68.4	0	2	292	0.00	29.825 
17:50	80.7	80.7	83.5	66	68.3	0	1	292	0.00	29.825 
17:55	80.7	80.7	83.7	67	68.7	0	2	292	0.00	29.825 
18:00	80.7	80.7	83.5	66	68.3	0	1	292	0.00	29.821 
18:05	80.7	80.7	83.8	68	69.1	1	2	292	0.00	29.821 
18:10	80.5	80.5	83.3	67	68.5	0	2	292	0.00	29.821 
18:15	80.3	80.3	83.3	69	69.2	1	2	292	0.00	29.820 
18:20	80.3	80.3	83.2	68	68.8	0	2	292	0.00	29.820 
18:25	80.1	80.1	82.9	68	68.6	0	1	292	0.00	29.820 
18:30	80.1	80.1	83.0	69	69.0	0	1	292	0.00	29.819 
18:35	79.9	79.9	82.7	69	68.8	0	1	292	0.00	29.819 
18:40	79.9	79.9	82.8	70	69.2	0	3	292	0.00	29.819 
18:45	79.9	79.9	82.9	71	69.6	0	2	292	0.00	29.830 
18:50	79.9	79.9	82.8	70	69.2	1	2	292	0.00	29.830 
18:55	79.8	79.8	82.7	71	69.5	1	3	292	0.00	29.830 
19:00	79.6	79.6	82.4	71	69.3	0	1	292	0.00	29.825 
19:05	79.6	79.6	82.4	71	69.3	0	2	292	0.00	29.825 
19:10	79.6	79.6	82.4	71	69.3	0	2	292	0.00	29.825 
19:15	79.2	79.2	81.6	69	68.1	1	3	292	0.00	29.837 
19:20	78.8	78.8	81.1	69	67.7	1	2	292	0.00	29.837 
19:25	78.5	78.5	80.7	69	67.5	1	3	292	0.00	29.837 
19:30	78.1	78.1	80.2	70	67.5	1	2	292	0.00	29.846 
19:35	77.7	77.7	79.7	72	67.9	0	2	292	0.00	29.846 
19:40	77.4	77.4	79.3	72	67.6	1	3	292	0.00	29.846 
19:45	77.0	77.0	78.7	72	67.3	1	3	248	0.00	29.842 
19:50	76.7	76.7	78.4	69	65.7	2	5	270	0.00	29.842 
19:55	76.5	76.5	78.2	69	65.6	1	3	270	0.00	29.842 
20:00	76.1	76.1	77.8	69	65.2	1	3	270	0.00	29.850 
20:05	76.0	76.0	77.7	69	65.1	1	4	270	0.00	29.850 
20:10	75.4	75.4	77.1	69	64.5	1	4	248	0.00	29.850 
20:15	75.1	75.1	76.9	69	64.2	2	4	270	0.00	29.856 
20:20	74.7	74.7	74.7	70	64.2	2	5	248	0.00	29.856 
20:25	74.4	74.4	74.4	70	64.0	1	3	248	0.00	29.856 
20:30	74.0	74.0	74.0	71	64.0	1	4	248	0.00	29.858 
20:35	73.7	73.7	73.7	71	63.7	2	5	270	0.00	29.858 
20:40	73.5	73.5	73.5	72	63.9	1	3	270	0.00	29.858 
20:45	73.3	73.3	73.3	72	63.7	1	3	270	0.00	29.873 
20:50	73.2	73.2	73.2	73	64.0	1	4	270	0.00	29.873 
20:55	73.0	73.0	73.0	74	64.2	1	2	270	0.00	29.873 
21:00	72.8	72.8	72.8	74	64.0	1	3	270	0.00	29.873 
21:05	72.7	72.7	72.7	75	64.3	1	3	270	0.00	29.873 
21:10	72.3	72.3	72.3	76	64.3	1	5	270	0.00	29.873 
21:15	72.1	72.1	72.1	77	64.5	1	3	270	0.00	29.869 
21:20	72.0	72.0	72.0	77	64.4	1	3	270	0.00	29.869 
21:25	71.8	71.8	71.8	77	64.2	1	3	270	0.00	29.869 
21:30	71.8	71.8	71.8	78	64.6	1	3	270	0.00	29.870 
21:35	71.6	71.6	71.6	78	64.4	1	3	270	0.00	29.870 
21:40	71.5	71.5	71.5	79	64.6	0	2	270	0.00	29.870 
21:45	71.3	71.3	71.3	80	64.8	1	3	270	0.00	29.876 
21:50	71.1	71.1	71.1	80	64.6	1	4	270	0.00	29.876 
21:55	70.9	70.9	70.9	81	64.8	0	3	270	0.00	29.876 
22:00	70.9	70.9	70.9	81	64.8	0	4	270	0.00	29.890 
22:05	70.8	70.8	70.8	81	64.7	1	4	270	0.00	29.890 
22:10	70.8	70.8	70.8	82	65.0	1	3	270	0.00	29.890 
22:15	70.6	70.6	70.6	82	64.8	1	4	270	0.00	29.899 
22:20	70.4	70.4	70.4	83	65.0	1	3	270	0.00	29.899 
22:25	70.4	70.4	70.4	83	65.0	2	4	270	0.00	29.899 
22:30	70.3	70.3	70.3	83	64.9	2	5	270	0.00	29.919 
22:35	70.3	70.3	70.3	83	64.9	1	4	270	0.00	29.919 
22:40	70.3	70.3	70.3	83	64.9	1	3	270	0.00	29.919 
22:45	70.3	70.3	70.3	83	64.9	1	3	248	0.00	29.924 
22:50	70.3	70.3	70.3	83	64.9	1	3	270	0.00	29.924 
22:55	70.4	70.4	70.4	83	65.0	1	3	270	0.00	29.924 
23:00	70.4	70.4	70.4	83	65.0	1	4	270	0.00	29.930 
23:05	70.4	70.4	70.4	83	65.0	1	4	270	0.00	29.930 
23:10	70.3	70.3	70.3	83	64.9	1	3	270	0.00	29.930 
23:15	70.3	70.3	70.3	83	64.9	1	3	270	0.00	29.922 
23:20	70.3	70.3	70.3	83	64.9	1	2	270	0.00	29.922 
23:25	70.3	70.3	70.3	83	64.9	1	3	292	0.00	29.922 
23:30	70.1	70.1	70.1	84	65.0	1	3	270	0.00	29.924 
23:35	70.1	70.1	70.1	84	65.0	1	3	270	0.00	29.924 
23:40	69.9	69.9	69.9	84	64.8	0	1	270	0.00	29.924 
23:45	69.8	69.8	69.8	84	64.7	0	2	270	0.00	29.926 
23:50	69.6	69.6	69.6	85	64.9	0	2	270	0.00	29.926 
23:55	69.4	69.4	69.4	85	64.7	0	2	270	0.00	29.926 

CoCoRaHS
IN-AL-39
A2 Web Hosting
Creative Commons License
GoDaddy
search engine by freefind advanced

loaded 2018-11-15 04:00:07 • last modified 2010-11-18 10:43:29
Privacy PolicyDisclaimer
• wx.awcolley.com is powered by PmWiki v.2002016 •
• all content (unless otherwise noted) © 2018 A W Colley